Time;durP1;ratioP1;P1;durP2;ratioP2;P2;SDS_P1;SDS_P2;PMS_P1;PMS_P2;Temp;Humidity;BMP_temperature;BMP_pressure;BME280_temperature;BME280_humidity;BME280_pressure;Samples;Min_cycle;Max_cycle;Signal;HPM_P1;HPM_P2
2022/08/12 00:42:57;;;;;;;;;;;;;;;;;;5042519;28;19991;-73
2022/08/12 00:45:23;;;;;;;;;;;;;;;;;;5045220;28;20364;-73
2022/08/12 00:47:49;;;;;;;;;;;;;;;;;;5038318;28;20394;-73
2022/08/12 00:50:18;;;;;;;;;;;;;;;;;;5043412;28;19944;-73
2022/08/12 00:52:44;;;;;;;;;;;;;;;;;;5028910;28;19913;-73
2022/08/12 00:55:10;;;;;;;;;;;;;;;;;;5038923;28;20003;-73
2022/08/12 00:57:36;;;;;;;;;;;;;;;;;;5042767;28;20010;-73
2022/08/12 01:00:07;;;;;;;;;;;;;;;;;;5042025;28;20364;-73
2022/08/12 01:02:33;;;;;;;;;;;;;;;;;;5047379;28;19935;-73
2022/08/12 01:13:13;;;;;;;;;;;;;;;;;;5042439;28;19923;-73
2022/08/12 01:15:39;;;;;;;;;;;;;;;;;;5043428;28;19917;-71
2022/08/12 01:18:05;;;;;;;;;;;;;;;;;;5044009;28;19967;-73
2022/08/12 01:20:31;;;;;;;;;;;;;;;;;;5039174;28;19927;-71
2022/08/12 01:22:58;;;;;;;;;;;;;;;;;;5042354;28;19908;-73
2022/08/12 01:25:24;;;;;;;;;;;;;;;;;;5033841;28;20379;-73
2022/08/12 01:27:50;;;;;;;;;;;;;;;;;;5044398;28;19916;-74
2022/08/12 01:30:16;;;;;;;;;;;;;;;;;;5040715;28;19923;-74
2022/08/12 01:32:42;;;;;;;;;;;;;;;;;;5040941;28;20003;-73
2022/08/12 01:35:08;;;;;;;;;;;;;;;;;;5044206;28;19994;-73
2022/08/12 01:37:35;;;;;;;;;;;;;;;;;;5040748;28;19916;-74
2022/08/12 01:40:02;;;;;;;;;;;;;;;;;;5043529;28;19912;-73
2022/08/12 01:42:28;;;;;;;;;;;;;;;;;;5042519;28;19909;-73
2022/08/12 01:44:54;;;;;;;;;;;;;;;;;;5043240;28;19986;-73
2022/08/12 01:47:22;;;;;;;;;;;;;;;;;;5038860;28;19974;-74
2022/08/12 01:49:48;;;;;;;;;;;;;;;;;;5043166;28;20288;-73
2022/08/12 01:52:14;;;;;;;;;;;;;;;;;;5042080;28;19948;-73
2022/08/12 01:54:40;;;;;;;;;;;;;;;;;;5021986;28;19991;-72
2022/08/12 01:57:06;;;;;;;;;;;;;;;;;;5038946;28;19944;-73
2022/08/12 01:59:57;;;;;;;;;;;;;;;;;;5027002;28;20360;-73
2022/08/12 02:02:25;;;;;;;;;;;;;;;;;;5043736;28;20296;-73
2022/08/12 02:13:07;;;;;;;;;;;;;;;;;;5045131;28;20012;-74
2022/08/12 02:15:33;;;;;;;;;;;;;;;;;;5039921;28;19924;-74
2022/08/12 02:17:59;;;;;;;;;;;;;;;;;;5033349;28;19925;-73
2022/08/12 02:20:25;;;;;;;;;;;;;;;;;;5044126;28;19947;-73
2022/08/12 02:22:51;;;;;;;;;;;;;;;;;;5033053;28;19944;-73
2022/08/12 02:25:17;;;;;;;;;;;;;;;;;;5040105;28;19963;-74
2022/08/12 02:27:44;;;;;;;;;;;;;;;;;;5031914;28;20660;-74
2022/08/12 02:30:10;;;;;;;;;;;;;;;;;;5021517;28;20004;-74
2022/08/12 02:32:37;;;;;;;;;;;;;;;;;;5046507;28;19912;-74
2022/08/12 02:35:03;;;;;;;;;;;;;;;;;;5048709;28;19928;-73
2022/08/12 02:37:29;;;;;;;;;;;;;;;;;;5040743;28;19913;-73
2022/08/12 02:39:55;;;;;;;;;;;;;;;;;;5044270;28;19909;-72
2022/08/12 02:42:22;;;;;;;;;;;;;;;;;;5042832;28;19936;-73
2022/08/12 02:44:48;;;;;;;;;;;;;;;;;;5052691;28;19912;-73
2022/08/12 02:47:14;;;;;;;;;;;;;;;;;;5045781;28;20047;-73
2022/08/12 02:49:40;;;;;;;;;;;;;;;;;;5041682;28;19921;-73
2022/08/12 02:52:06;;;;;;;;;;;;;;;;;;5044518;28;19983;-73
2022/08/12 02:54:32;;;;;;;;;;;;;;;;;;5041678;28;20047;-73
2022/08/12 02:56:58;;;;;;;;;;;;;;;;;;5064173;28;20556;-73
2022/08/12 02:59:25;;;;;;;;;;;;;;;;;;5037815;28;19917;-73
2022/08/12 03:01:52;;;;;;;;;;;;;;;;;;5048483;28;20416;-74
2022/08/12 03:04:18;;;;;;;;;;;;;;;;;;5046271;28;19917;-73
2022/08/12 03:06:44;;;;;;;;;;;;;;;;;;5044643;28;19996;-72
2022/08/12 03:09:10;;;;;;;;;;;;;;;;;;5049010;28;20440;-73
2022/08/12 03:11:36;;;;;;;;;;;;;;;;;;5046136;28;20007;-72
2022/08/12 03:14:02;;;;;;;;;;;;;;;;;;5036740;28;19952;-73
2022/08/12 03:16:29;;;;;;;;;;;;;;;;;;5040760;28;20026;-72
2022/08/12 03:18:54;;;;;;;;;;;;;;;;;;5012684;28;20336;-72
2022/08/12 03:21:20;;;;;;;;;;;;;;;;;;5045685;28;20273;-73
2022/08/12 03:23:46;;;;;;;;;;;;;;;;;;5012424;28;20321;-73
2022/08/12 03:26:13;;;;;;;;;;;;;;;;;;5041421;28;19931;-73
2022/08/12 03:28:56;;;;;;;;;;;;;;;;;;5044638;28;19933;-72
2022/08/12 03:31:23;;;;;;;;;;;;;;;;;;5042891;28;19920;-73
2022/08/12 03:33:49;;;;;;;;;;;;;;;;;;5034873;28;19936;-73
2022/08/12 03:36:16;;;;;;;;;;;;;;;;;;5043308;28;19916;-73
2022/08/12 03:38:43;;;;;;;;;;;;;;;;;;5047236;28;19979;-73
2022/08/12 04:00:25;;;;;;;;;;;;;;;;;;5032625;28;19915;-73
2022/08/12 04:02:57;;;;;;;;;;;;;;;;;;5050654;28;19905;-73
2022/08/12 04:05:23;;;;;;;;;;;;;;;;;;5047083;28;20371;-73
2022/08/12 04:07:49;;;;;;;;;;;;;;;;;;5050300;28;19967;-72
2022/08/12 04:10:15;;;;;;;;;;;;;;;;;;5038732;28;19951;-73
2022/08/12 04:15:27;;;;;;;;;;;;;;;;;;5042823;28;20276;-72
2022/08/12 04:17:53;;;;;;;;;;;;;;;;;;5039709;28;20375;-73
2022/08/12 04:20:20;;;;;;;;;;;;;;;;;;5039695;28;19948;-73
2022/08/12 04:22:46;;;;;;;;;;;;;;;;;;5049125;28;19931;-72
2022/08/12 04:25:12;;;;;;;;;;;;;;;;;;5046912;28;19913;-73
2022/08/12 04:27:38;;;;;;;;;;;;;;;;;;5049334;28;20353;-72
2022/08/12 04:30:06;;;;;;;;;;;;;;;;;;5023468;28;19912;-72
2022/08/12 04:32:32;;;;;;;;;;;;;;;;;;5048609;28;20460;-72
2022/08/12 04:34:58;;;;;;;;;;;;;;;;;;5039551;28;19948;-73
2022/08/12 04:37:24;;;;;;;;;;;;;;;;;;5034959;28;20218;-72
2022/08/12 04:39:49;;;;;;;;;;;;;;;;;;5059409;28;20042;-72
2022/08/12 04:42:15;;;;;;;;;;;;;;;;;;5045288;28;19934;-73
2022/08/12 04:44:43;;;;;;;;;;;;;;;;;;5037370;28;19947;-72
2022/08/12 04:47:09;;;;;;;;;;;;;;;;;;5046685;28;19920;-73
2022/08/12 04:49:35;;;;;;;;;;;;;;;;;;5046735;28;20042;-73
2022/08/12 04:52:02;;;;;;;;;;;;;;;;;;5036032;28;19905;-72
2022/08/12 04:54:28;;;;;;;;;;;;;;;;;;5034452;28;19928;-73
2022/08/12 04:56:54;;;;;;;;;;;;;;;;;;5053319;28;20295;-72
2022/08/12 04:59:20;;;;;;;;;;;;;;;;;;5049085;28;19999;-72
2022/08/12 05:01:46;;;;;;;;;;;;;;;;;;5027315;28;19967;-73
2022/08/12 05:04:14;;;;;;;;;;;;;;;;;;5049825;28;20003;-73
2022/08/12 05:06:41;;;;;;;;;;;;;;;;;;5031011;28;19917;-73
2022/08/12 05:09:07;;;;;;;;;;;;;;;;;;5038981;28;19905;-73
2022/08/12 05:11:33;;;;;;;;;;;;;;;;;;5046307;28;19916;-73
2022/08/12 05:13:59;;;;;;;;;;;;;;;;;;5048600;28;19948;-73
2022/08/12 05:16:25;;;;;;;;;;;;;;;;;;5046224;28;19908;-73
2022/08/12 05:18:51;;;;;;;;;;;;;;;;;;5047360;28;19999;-73
2022/08/12 05:21:17;;;;;;;;;;;;;;;;;;5041487;28;20358;-73
2022/08/12 05:23:43;;;;;;;;;;;;;;;;;;5045899;28;19913;-73
2022/08/12 05:26:09;;;;;;;;;;;;;;;;;;5042834;28;20376;-72
2022/08/12 05:28:35;;;;;;;;;;;;;;;;;;5037107;28;20348;-73
2022/08/12 05:31:01;;;;;;;;;;;;;;;;;;5047409;28;19931;-73
2022/08/12 05:33:36;;;;;;;;;;;;;;;;;;5050850;28;19939;-73
2022/08/12 05:36:02;;;;;;;;;;;;;;;;;;5044559;28;19915;-74
2022/08/12 05:41:19;;;;;;;;;;;;;;;;;;5034310;28;20383;-78
2022/08/12 05:43:45;;;;;;;;;;;;;;;;;;5026365;28;19913;-78
2022/08/12 05:46:11;;;;;;;;;;;;;;;;;;5048329;28;19913;-76
2022/08/12 05:48:37;;;;;;;;;;;;;;;;;;5051731;28;19919;-77
2022/08/12 05:51:03;;;;;;;;;;;;;;;;;;5038454;28;19996;-78
2022/08/12 05:53:29;;;;;;;;;;;;;;;;;;5047028;28;19944;-78
2022/08/12 05:55:55;;;;;;;;;;;;;;;;;;5050016;28;19916;-77
2022/08/12 05:58:21;;;;;;;;;;;;;;;;;;5055769;28;19909;-79
2022/08/12 06:00:47;;;;;;;;;;;;;;;;;;5042114;28;19940;-77
2022/08/12 06:03:16;;;;;;;;;;;;;;;;;;5049414;28;20012;-78
2022/08/12 06:05:44;;;;;;;;;;;;;;;;;;5045511;28;19917;-75
2022/08/12 06:08:11;;;;;;;;;;;;;;;;;;5039305;28;20264;-77
2022/08/12 06:10:37;;;;;;;;;;;;;;;;;;5039301;28;19915;-75
2022/08/12 06:13:03;;;;;;;;;;;;;;;;;;5033353;28;20330;-76
2022/08/12 06:15:29;;;;;;;;;;;;;;;;;;5048109;28;19956;-75
2022/08/12 06:17:54;;;;;;;;;;;;;;;;;;5055980;28;20002;-74
2022/08/12 06:20:20;;;;;;;;;;;;;;;;;;5045345;28;19905;-75
2022/08/12 06:22:46;;;;;;;;;;;;;;;;;;5050946;28;19956;-74
2022/08/12 06:25:17;;;;;;;;;;;;;;;;;;5048342;28;19905;-77
2022/08/12 06:27:44;;;;;;;;;;;;;;;;;;5052691;28;19920;-76
2022/08/12 06:30:10;;;;;;;;;;;;;;;;;;5051934;28;20370;-78
2022/08/12 06:32:36;;;;;;;;;;;;;;;;;;5050381;28;19909;-79
2022/08/12 06:35:03;;;;;;;;;;;;;;;;;;5046069;28;20474;-79
2022/08/12 06:37:29;;;;;;;;;;;;;;;;;;5042445;28;19955;-78
2022/08/12 06:44:56;;;;;;;7.28;3.75;;;;;;;;;;5129547;27;20139;-78
2022/08/12 06:47:22;;;;;;;5.90;4.13;;;;;;;;;;5111470;27;20041;-77
2022/08/12 06:49:48;;;;;;;7.35;3.42;;;;;;;;;;5129121;27;20039;-76
2022/08/12 06:52:16;;;;;;;9.88;7.10;;;;;;;;;;5126012;27;20112;-78
2022/08/12 06:54:43;;;;;;;14.05;7.32;;;;;;;;;;5124945;27;20471;-79
2022/08/12 06:57:10;;;;;;;10.50;7.95;;;;;;;;;;5120670;27;20024;-75
2022/08/12 06:59:39;;;;;;;4.63;3.50;;;;;;;;;;5113878;27;20039;-76
2022/08/12 07:02:07;;;;;;;4.47;3.15;;;;;;;;;;5116793;27;20032;-73
2022/08/12 07:04:37;;;;;;;6.70;2.97;;;;;;;;;;5109632;27;20051;-73
2022/08/12 07:07:04;;;;;;;5.63;2.88;;;;;;;;;;5110027;27;20027;-74
2022/08/12 07:09:30;;;;;;;4.32;2.70;;;;;;;;;;5109929;28;20877;-73
2022/08/12 07:11:56;;;;;;;5.25;2.50;;;;;;;;;;5138113;27;20035;-72
2022/08/12 07:14:22;;;;;;;4.10;2.40;;;;;;;;;;5124344;28;20039;-72
2022/08/12 07:16:51;;;;;;;6.00;2.90;;;;;;;;;;5117079;27;20042;-71
2022/08/12 07:19:17;;;;;;;4.07;2.17;;;;;;;;;;5122916;27;20111;-71
2022/08/12 07:21:44;;;;;;;3.10;1.95;;;;;;;;;;5123809;27;20042;-70
2022/08/12 07:24:10;;;;;;;6.65;2.30;;;;;;;;;;5114866;28;20093;-71
2022/08/12 07:26:39;;;;;;;5.97;2.28;;;;;;;;;;5121104;27;20019;-70
2022/08/12 07:29:05;;;;;;;5.65;2.00;;;;;;;;;;5114814;27;20032;-72
2022/08/12 07:31:33;;;;;;;7.07;2.00;;;;;;;;;;5117682;27;20038;-72
2022/08/12 07:34:00;;;;;;;7.40;2.33;;;;;;;;;;5115280;27;20039;-71
2022/08/12 07:36:26;;;;;;;4.88;2.00;;;;;;;;;;5121194;27;20092;-71
2022/08/12 07:38:52;;;;;;;3.03;1.85;;;;;;;;;;5115018;27;20070;-78
2022/08/12 07:41:24;;;;;;;17.58;11.30;;;;;;;;;;5104235;27;20055;-73
2022/08/12 07:43:55;;;;;;;20.90;11.35;;;;;;;;;;5096287;28;20023;-77
2022/08/12 07:46:23;;;;;;;7.63;2.57;;;;;;;;;;5100806;28;20023;-73
2022/08/12 07:48:53;;;;;;;2.85;2.30;;;;;;;;;;5101432;28;20023;-76
2022/08/12 07:51:20;;;;;;;8.52;1.65;;;;;;;;;;5100356;28;20498;-73
2022/08/12 07:53:47;;;;;;;4.05;1.90;;;;;;;;;;5083019;28;20035;-73
2022/08/12 07:56:14;;;;;;;4.18;1.98;;;;;;;;;;5092097;28;20062;-73
2022/08/12 07:58:40;;;;;;;2.03;1.67;;;;;;;;;;5092083;28;20089;-73
2022/08/12 08:01:10;;;;;;;3.80;1.73;;;;;;;;;;5088400;28;20046;-75
2022/08/12 08:03:37;;;;;;;1.88;1.38;;;;;;;;;;5088808;28;20071;-74
2022/08/12 08:06:14;;;;;;;5.00;2.15;;;;;;;;;;5089842;28;20085;-74
2022/08/12 08:08:40;;;;;;;2.40;1.70;;;;;;;;;;5073823;28;20036;-74
2022/08/12 08:13:51;;;;;;;3.83;1.80;;;;;;;;;;5077216;28;20128;-74
2022/08/12 08:16:18;;;;;;;2.33;1.27;;;;;;;;;;5089916;28;20032;-74
2022/08/12 08:18:44;;;;;;;5.63;1.35;;;;;;;;;;5088774;28;20468;-74
2022/08/12 08:21:10;;;;;;;6.85;1.67;;;;;;;;;;5082501;28;20452;-74
2022/08/12 08:26:23;;;;;;;5.38;1.90;;;;;;;;;;5081159;28;20407;-76
2022/08/12 08:28:49;;;;;;;2.95;1.40;;;;;;;;;;5089956;28;20024;-76
2022/08/12 08:31:15;;;;;;;6.13;1.33;;;;;;;;;;5081129;28;20036;-77
2022/08/12 08:33:42;;;;;;;5.47;1.45;;;;;;;;;;5077940;28;20032;-76
2022/08/12 08:36:11;;;;;;;5.75;1.55;;;;;;;;;;5083342;28;20039;-76
2022/08/12 08:38:40;;;;;;;9.15;1.42;;;;;;;;;;5081254;28;20048;-74
2022/08/12 08:43:54;;;;;;;5.50;1.50;;;;;;;;;;5100137;28;20510;-76
2022/08/12 08:46:21;;;;;;;3.05;1.15;;;;;;;;;;5112864;27;20073;-75
2022/08/12 08:48:48;;;;;;;3.92;1.60;;;;;;;;;;5106347;27;20055;-75
2022/08/12 08:51:14;;;;;;;6.68;1.50;;;;;;;;;;5095200;28;20027;-76
2022/08/12 08:53:40;;;;;;;5.55;1.73;;;;;;;;;;5100241;28;20032;-74
2022/08/12 08:56:09;;;;;;;6.45;1.70;;;;;;;;;;5097733;28;20020;-74
2022/08/12 08:58:39;;;;;;;3.58;1.77;;;;;;;;;;5111787;27;20433;-74
2022/08/12 09:01:05;;;;;;;3.10;1.35;;;;;;;;;;5112872;28;20109;-74
2022/08/12 09:03:32;;;;;;;3.88;1.20;;;;;;;;;;5091158;28;20097;-74
2022/08/12 09:06:00;;;;;;;10.23;1.73;;;;;;;;;;5113333;28;20315;-75
2022/08/12 09:08:26;;;;;;;2.08;1.48;;;;;;;;;;5110321;27;20034;-74
2022/08/12 09:10:57;;;;;;;3.00;1.38;;;;;;;;;;5104725;27;20174;-75
2022/08/12 09:13:33;;;;;;;3.90;1.10;;;;;;;;;;5101678;28;20187;-75
2022/08/12 09:15:59;;;;;;;4.85;1.20;;;;;;;;;;5101629;28;20621;-75
2022/08/12 09:18:26;;;;;;;2.97;1.30;;;;;;;;;;5088868;27;20038;-75
2022/08/12 09:20:52;;;;;;;3.47;1.17;;;;;;;;;;5094988;28;20024;-75
2022/08/12 09:23:18;;;;;;;4.88;1.27;;;;;;;;;;5110345;28;20031;-75
2022/08/12 09:25:47;;;;;;;8.40;1.23;;;;;;;;;;5107193;28;20088;-75
2022/08/12 09:28:13;;;;;;;2.80;1.30;;;;;;;;;;5107139;28;20035;-75
2022/08/12 09:30:50;;;;;;;6.72;1.17;;;;;;;;;;5105866;28;20036;-75
2022/08/12 09:33:16;;;;;;;6.80;1.25;;;;;;;;;;5094735;27;20073;-75
2022/08/12 09:35:43;;;;;;;5.18;1.23;;;;;;;;;;5105924;28;20042;-75
2022/08/12 09:38:12;;;;;;;4.60;1.30;;;;;;;;;;5096721;28;20109;-76
2022/08/12 09:40:38;;;;;;;2.83;1.10;;;;;;;;;;5101907;28;20523;-74
2022/08/12 09:45:49;;;;;;;5.53;1.63;;;;;;;;;;5107498;27;20393;-75
2022/08/12 09:48:19;;;;;;;4.47;1.33;;;;;;;;;;5106770;28;20039;-75
2022/08/12 09:50:50;;;;;;;2.25;1.27;;;;;;;;;;5101597;28;20134;-73
2022/08/12 09:53:19;;;;;;;4.50;1.40;;;;;;;;;;5112251;27;20028;-75
2022/08/12 09:55:51;;;;;;;6.65;1.30;;;;;;;;;;5106995;28;20088;-76
2022/08/12 09:58:18;;;;;;;3.38;1.10;;;;;;;;;;5110651;27;20399;-75
2022/08/12 10:00:45;;;;;;;5.90;1.40;;;;;;;;;;5098478;28;20031;-76
2022/08/12 10:03:13;;;;;;;5.18;1.23;;;;;;;;;;5110048;28;20016;-76
2022/08/12 10:05:42;;;;;;;2.08;1.10;;;;;;;;;;5100075;28;20032;-76
2022/08/12 10:08:12;;;;;;;5.03;1.15;;;;;;;;;;5101520;28;20399;-78
2022/08/12 10:13:40;;;;;;;6.50;1.53;;;;;;;;;;5102769;28;20031;-75
2022/08/12 10:13:43;;;;;;;3.22;1.20;;;;;;;;;;5109418;27;20040;-75
2022/08/12 10:16:16;;;;;;;6.20;1.40;;;;;;;;;;5103028;28;20127;-75
2022/08/12 10:18:44;;;;;;;4.30;1.30;;;;;;;;;;5107087;28;20024;-75
2022/08/12 10:21:14;;;;;;;5.25;1.42;;;;;;;;;;5105754;28;20035;-75
2022/08/12 10:23:42;;;;;;;2.58;1.23;;;;;;;;;;5104609;28;20036;-75
2022/08/12 10:31:39;;;;;;;12.27;1.70;;;;;;;;;;5099682;28;20042;-75
2022/08/12 10:34:08;;;;;;;7.30;2.05;;;;;;;;;;5089081;28;20172;-76
2022/08/12 10:36:37;;;;;;;10.63;1.30;;;;;;;;;;5095272;28;20585;-76
2022/08/12 10:39:03;;;;;;;2.75;1.00;;;;;;;;;;5107015;28;20058;-76
2022/08/12 10:44:14;;;;;;;3.47;1.17;;;;;;;;;;5106698;28;20451;-76
2022/08/12 10:46:41;;;;;;;2.10;0.93;;;;;;;;;;5098001;28;20392;-75
2022/08/12 10:49:10;;;;;;;3.33;1.00;;;;;;;;;;5110085;28;20479;-76
2022/08/12 10:51:41;;;;;;;2.47;1.17;;;;;;;;;;5098307;28;20034;-76
2022/08/12 10:54:08;;;;;;;2.10;1.35;;;;;;;;;;5108011;28;20462;-76
2022/08/12 10:56:35;;;;;;;2.33;1.15;;;;;;;;;;5077641;28;20023;-75
2022/08/12 10:59:03;;;;;;;6.85;1.40;;;;;;;;;;5097400;28;20385;-76
2022/08/12 11:01:30;;;;;;;5.30;1.17;;;;;;;;;;5102283;28;20036;-75
2022/08/12 11:03:56;;;;;;;2.63;1.13;;;;;;;;;;5107174;28;20399;-77
2022/08/12 11:06:22;;;;;;;5.18;1.00;;;;;;;;;;5097385;28;20471;-76
2022/08/12 11:08:49;;;;;;;7.05;1.40;;;;;;;;;;5117966;28;20509;-76
2022/08/12 11:11:16;;;;;;;7.60;1.33;;;;;;;;;;5107788;28;20024;-76
2022/08/12 11:13:43;;;;;;;2.58;1.15;;;;;;;;;;5106418;27;20105;-77
2022/08/12 11:16:09;;;;;;;4.82;0.98;;;;;;;;;;5101072;28;20096;-77
2022/08/12 11:18:36;;;;;;;5.07;1.10;;;;;;;;;;5098484;28;20086;-76
2022/08/12 11:21:02;;;;;;;2.45;1.17;;;;;;;;;;5088257;28;20032;-76
2022/08/12 11:23:28;;;;;;;5.18;1.23;;;;;;;;;;5122150;27;20122;-77
2022/08/12 11:25:54;;;;;;;13.32;1.75;;;;;;;;;;5110039;28;20039;-76
2022/08/12 11:28:20;;;;;;;8.63;1.20;;;;;;;;;;5098845;27;20075;-76
2022/08/12 11:30:46;;;;;;;10.30;1.10;;;;;;;;;;5098641;28;20028;-76
2022/08/12 11:33:12;;;;;;;2.53;1.00;;;;;;;;;;5097272;28;20036;-76
2022/08/12 11:35:40;;;;;;;3.13;1.00;;;;;;;;;;5099046;28;20032;-76
2022/08/12 11:38:06;;;;;;;6.90;1.00;;;;;;;;;;5101670;27;20115;-75
2022/08/12 11:40:32;;;;;;;3.85;1.00;;;;;;;;;;5099107;27;20143;-75
2022/08/12 11:42:59;;;;;;;3.13;1.20;;;;;;;;;;5098834;28;20030;-75
2022/08/12 11:45:26;;;;;;;3.40;1.20;;;;;;;;;;5102016;28;20047;-74
2022/08/12 11:47:53;;;;;;;6.90;1.13;;;;;;;;;;5101155;28;20043;-76
2022/08/12 11:50:20;;;;;;;6.15;1.75;;;;;;;;;;5120331;27;20087;-75
2022/08/12 11:52:50;;;;;;;7.32;1.30;;;;;;;;;;5098810;27;20543;-75
2022/08/12 11:55:16;;;;;;;4.85;1.33;;;;;;;;;;5105526;28;20487;-76
2022/08/12 11:57:50;;;;;;;7.20;1.35;;;;;;;;;;5100950;27;20066;-75
2022/08/12 12:00:16;;;;;;;5.32;1.42;;;;;;;;;;5093551;28;20569;-75
2022/08/12 12:02:42;;;;;;;5.45;1.27;;;;;;;;;;5100806;27;20135;-76
2022/08/12 12:05:08;;;;;;;2.58;1.20;;;;;;;;;;5103450;28;20035;-77
2022/08/12 12:07:38;;;;;;;3.92;1.13;;;;;;;;;;5074349;28;20028;-76
2022/08/12 12:10:04;;;;;;;5.88;1.25;;;;;;;;;;5095514;28;20026;-77
2022/08/12 12:12:31;;;;;;;3.95;1.20;;;;;;;;;;5106754;28;20367;-76
2022/08/12 12:14:57;;;;;;;9.80;1.08;;;;;;;;;;5099880;28;20107;-77
2022/08/12 12:17:27;;;;;;;10.02;1.00;;;;;;;;;;5126386;27;20476;-76
2022/08/12 12:19:53;;;;;;;2.38;0.82;;;;;;;;;;5117342;27;20063;-76
2022/08/12 12:22:20;;;;;;;6.13;1.20;;;;;;;;;;5117024;27;20096;-76
2022/08/12 12:24:47;;;;;;;5.28;1.10;;;;;;;;;;5100501;28;20032;-76
2022/08/12 12:27:14;;;;;;;6.60;1.40;;;;;;;;;;5117643;27;20039;-76
2022/08/12 12:29:40;;;;;;;7.28;1.20;;;;;;;;;;5113974;27;20057;-75
2022/08/12 12:32:06;;;;;;;1.58;1.10;;;;;;;;;;5098279;28;20039;-75
2022/08/12 12:34:32;;;;;;;2.83;1.02;;;;;;;;;;5107204;28;20031;-75
2022/08/12 12:36:58;;;;;;;5.68;1.27;;;;;;;;;;5095320;27;20051;-75
2022/08/12 12:39:24;;;;;;;3.78;1.20;;;;;;;;;;5107424;28;20031;-75
2022/08/12 12:41:50;;;;;;;4.22;1.73;;;;;;;;;;5091327;28;20507;-75
2022/08/12 12:44:16;;;;;;;2.40;0.95;;;;;;;;;;5094816;27;20484;-75
2022/08/12 12:46:42;;;;;;;7.03;1.00;;;;;;;;;;5108653;27;20028;-76
2022/08/12 12:49:08;;;;;;;1.88;0.90;;;;;;;;;;5095660;28;20031;-76
2022/08/12 12:51:34;;;;;;;4.78;1.15;;;;;;;;;;5092465;28;20109;-76
2022/08/12 12:54:00;;;;;;;4.28;1.65;;;;;;;;;;5101970;27;20031;-76
2022/08/12 12:56:26;;;;;;;5.32;1.67;;;;;;;;;;5108757;28;20035;-76
2022/08/12 12:58:53;;;;;;;5.75;1.17;;;;;;;;;;5080961;28;20489;-76
2022/08/12 13:01:25;;;;;;;12.52;2.17;;;;;;;;;;5108733;27;20042;-76
2022/08/12 13:03:55;;;;;;;3.05;0.75;;;;;;;;;;5112335;28;20063;-76
2022/08/12 13:06:24;;;;;;;3.47;1.00;;;;;;;;;;5106922;28;20043;-76
2022/08/12 13:08:52;;;;;;;4.68;1.10;;;;;;;;;;5105035;27;20848;-77
2022/08/12 13:11:20;;;;;;;3.58;0.98;;;;;;;;;;5106716;28;20043;-77
2022/08/12 13:13:48;;;;;;;3.17;1.15;;;;;;;;;;5112666;28;20035;-76
2022/08/12 13:16:20;;;;;;;1.08;0.80;;;;;;;;;;5106925;28;21788;-77
2022/08/12 13:18:47;;;;;;;5.43;1.10;;;;;;;;;;5106343;27;20015;-76
2022/08/12 13:21:16;;;;;;;4.32;0.90;;;;;;;;;;5095609;27;20031;-76
2022/08/12 13:23:44;;;;;;;7.95;1.15;;;;;;;;;;5106413;27;20435;-76
2022/08/12 13:26:10;;;;;;;3.50;1.00;;;;;;;;;;5110854;28;20076;-76
2022/08/12 13:28:37;;;;;;;3.47;1.10;;;;;;;;;;5111414;28;20050;-76
2022/08/12 13:31:03;;;;;;;2.33;0.93;;;;;;;;;;5102970;27;20114;-76
2022/08/12 13:33:31;;;;;;;1.50;0.95;;;;;;;;;;5092574;28;20043;-76
2022/08/12 13:36:02;;;;;;;4.43;0.95;;;;;;;;;;5102682;27;20024;-76
2022/08/12 13:38:39;;;;;;;1.20;0.75;;;;;;;;;;5092195;28;20046;-76
2022/08/12 13:41:06;;;;;;;1.77;1.10;;;;;;;;;;5079176;28;20063;-76
2022/08/12 13:43:32;;;;;;;8.27;1.00;;;;;;;;;;5093181;28;20073;-76
2022/08/12 13:46:00;;;;;;;2.30;1.00;;;;;;;;;;5107253;28;20176;-76
2022/08/12 13:48:26;;;;;;;3.70;1.00;;;;;;;;;;5098162;28;20072;-76
2022/08/12 13:50:52;;;;;;;3.42;1.30;;;;;;;;;;5101178;28;20044;-75
2022/08/12 13:53:19;;;;;;;7.35;1.33;;;;;;;;;;5101779;27;20111;-75
2022/08/12 13:55:48;;;;;;;1.85;1.00;;;;;;;;;;5112451;27;20032;-76
2022/08/12 13:58:15;;;;;;;2.55;1.10;;;;;;;;;;5101004;27;20103;-75
2022/08/12 14:00:44;;;;;;;4.95;0.95;;;;;;;;;;5104522;28;20031;-75
2022/08/12 14:03:12;;;;;;;2.25;0.90;;;;;;;;;;5098359;28;20063;-75
2022/08/12 14:05:38;;;;;;;4.70;1.00;;;;;;;;;;5126829;27;20040;-75
2022/08/12 14:08:07;;;;;;;2.38;0.90;;;;;;;;;;5107833;27;20023;-76
2022/08/12 14:10:35;;;;;;;1.58;0.98;;;;;;;;;;5107966;27;20038;-75
2022/08/12 14:13:21;;;;;;;4.43;1.05;;;;;;;;;;5091523;28;20031;-75
2022/08/12 14:15:49;;;;;;;2.30;0.90;;;;;;;;;;5121273;27;20038;-75
2022/08/12 14:18:22;;;;;;;2.00;0.77;;;;;;;;;;5080965;28;20057;-75
2022/08/12 14:20:50;;;;;;;5.32;1.25;;;;;;;;;;5101541;28;20032;-76
2022/08/12 14:23:17;;;;;;;3.58;1.00;;;;;;;;;;5079406;28;20470;-72
2022/08/12 14:25:43;;;;;;;1.77;0.90;;;;;;;;;;5099303;28;20032;-74
2022/08/12 14:28:11;;;;;;;2.85;1.48;;;;;;;;;;5111182;28;20043;-74
2022/08/12 14:30:46;;;;;;;2.67;1.00;;;;;;;;;;5096022;28;20038;-74
2022/08/12 14:33:14;;;;;;;9.73;0.80;;;;;;;;;;5105749;28;20054;-74
2022/08/12 14:35:40;;;;;;;4.15;1.20;;;;;;;;;;5107008;28;20023;-74
2022/08/12 14:38:36;;;;;;;6.47;1.33;;;;;;;;;;5091659;28;20098;-74
2022/08/12 14:41:02;;;;;;;8.88;1.13;;;;;;;;;;5087762;28;20047;-74
2022/08/12 14:43:32;;;;;;;2.22;1.00;;;;;;;;;;5091090;28;20032;-74
2022/08/12 14:46:05;;;;;;;3.33;0.90;;;;;;;;;;5105095;28;20047;-75
2022/08/12 14:48:31;;;;;;;2.45;1.23;;;;;;;;;;5113107;27;20040;-74
2022/08/12 14:50:57;;;;;;;4.13;1.08;;;;;;;;;;5088666;28;20039;-74
2022/08/12 14:53:24;;;;;;;3.50;1.00;;;;;;;;;;5102943;28;20384;-74
2022/08/12 14:55:50;;;;;;;4.90;1.13;;;;;;;;;;5098197;28;20032;-74
2022/08/12 14:58:16;;;;;;;3.75;1.02;;;;;;;;;;5108762;28;20028;-75
2022/08/12 15:03:28;;;;;;;2.17;0.85;;;;;;;;;;5111612;28;20043;-76
2022/08/12 15:05:57;;;;;;;8.20;0.93;;;;;;;;;;5095622;27;20036;-72
2022/08/12 15:08:26;;;;;;;8.73;1.65;;;;;;;;;;5099732;28;20386;-71
2022/08/12 15:10:52;;;;;;;7.95;1.48;;;;;;;;;;5106780;27;20044;-71
2022/08/12 15:13:19;;;;;;;3.03;1.00;;;;;;;;;;5104125;27;20089;-71
2022/08/12 15:15:47;;;;;;;6.13;1.50;;;;;;;;;;5123361;27;20107;-71
2022/08/12 15:18:17;;;;;;;10.77;1.60;;;;;;;;;;5093937;28;20069;-72
2022/08/12 15:20:43;;;;;;;8.88;1.25;;;;;;;;;;5098931;27;20024;-73
2022/08/12 15:23:10;;;;;;;4.85;1.45;;;;;;;;;;5108272;28;20475;-71
2022/08/12 15:25:39;;;;;;;5.30;1.33;;;;;;;;;;5099886;28;20034;-71
2022/08/12 15:28:07;;;;;;;3.05;1.13;;;;;;;;;;5093369;28;20502;-71
2022/08/12 15:30:36;;;;;;;5.50;1.30;;;;;;;;;;5103640;27;20048;-70
2022/08/12 15:33:07;;;;;;;7.15;1.48;;;;;;;;;;5099491;27;20028;-71
2022/08/12 15:35:33;;;;;;;2.97;1.10;;;;;;;;;;5101926;28;20019;-71
2022/08/12 15:38:03;;;;;;;2.22;1.30;;;;;;;;;;5109117;28;20020;-73
2022/08/12 15:40:29;;;;;;;8.10;1.33;;;;;;;;;;5102587;27;20036;-72
2022/08/12 15:42:58;;;;;;;4.28;1.48;;;;;;;;;;5103594;27;20513;-74
2022/08/12 15:45:24;;;;;;;3.75;1.27;;;;;;;;;;5107641;28;20027;-73
2022/08/12 15:47:51;;;;;;;5.97;1.58;;;;;;;;;;5086413;28;20472;-74
2022/08/12 15:50:18;;;;;;;2.65;1.38;;;;;;;;;;5095452;27;20138;-74
2022/08/12 15:52:44;;;;;;;3.40;1.50;;;;;;;;;;5102879;28;20064;-73
2022/08/12 15:55:12;;;;;;;7.70;2.90;;;;;;;;;;5098292;28;20055;-76
2022/08/12 15:57:40;;;;;;;4.40;1.85;;;;;;;;;;5102379;28;20024;-73
2022/08/12 16:00:07;;;;;;;2.20;1.20;;;;;;;;;;5106368;28;20023;-73
2022/08/12 16:02:43;;;;;;;5.53;1.77;;;;;;;;;;5103503;28;20032;-74
2022/08/12 16:05:09;;;;;;;6.68;1.77;;;;;;;;;;5103711;27;20047;-74
2022/08/12 16:07:35;;;;;;;4.50;1.20;;;;;;;;;;5107080;28;20020;-73
2022/08/12 16:10:01;;;;;;;2.92;1.42;;;;;;;;;;5099896;28;20107;-73
2022/08/12 16:12:31;;;;;;;8.18;1.70;;;;;;;;;;5103886;28;20051;-73
2022/08/12 16:14:57;;;;;;;6.80;1.20;;;;;;;;;;5113792;27;20024;-73
2022/08/12 16:17:23;;;;;;;1.63;0.93;;;;;;;;;;5095114;28;20379;-73
2022/08/12 16:19:50;;;;;;;3.75;1.20;;;;;;;;;;5112638;27;20107;-73
2022/08/12 16:22:17;;;;;;;4.80;1.17;;;;;;;;;;5094025;28;20055;-74
2022/08/12 16:24:45;;;;;;;3.08;1.17;;;;;;;;;;5107545;27;20036;-72
2022/08/12 16:27:12;;;;;;;4.60;1.20;;;;;;;;;;5101967;28;20491;-72
2022/08/12 16:29:41;;;;;;;2.83;1.30;;;;;;;;;;5096923;28;20438;-72
2022/08/12 16:32:07;;;;;;;4.80;1.50;;;;;;;;;;5098300;28;20881;-71
2022/08/12 16:34:35;;;;;;;6.25;0.88;;;;;;;;;;5098633;27;20405;-73
2022/08/12 16:37:03;;;;;;;8.43;1.85;;;;;;;;;;5117771;27;20039;-74
2022/08/12 16:39:34;;;;;;;5.82;1.17;;;;;;;;;;5099987;27;20035;-73
2022/08/12 16:42:00;;;;;;;2.38;1.10;;;;;;;;;;5104903;28;20055;-73
2022/08/12 16:44:28;;;;;;;5.82;1.10;;;;;;;;;;5109273;28;20047;-73
2022/08/12 16:46:54;;;;;;;2.97;1.33;;;;;;;;;;5096390;28;20098;-74
2022/08/12 16:49:21;;;;;;;6.28;1.40;;;;;;;;;;5118172;27;20080;-73
2022/08/12 16:51:50;;;;;;;2.38;1.05;;;;;;;;;;5101704;28;20537;-73
2022/08/12 16:54:17;;;;;;;6.80;1.27;;;;;;;;;;5103735;28;20028;-73
2022/08/12 16:56:45;;;;;;;5.65;1.17;;;;;;;;;;5110533;28;20030;-73
2022/08/12 16:59:11;;;;;;;3.28;1.40;;;;;;;;;;5101861;27;20616;-73
2022/08/12 17:01:37;;;;;;;4.55;1.10;;;;;;;;;;5113231;27;20463;-73
2022/08/12 17:04:07;;;;;;;6.68;1.33;;;;;;;;;;5111934;28;20464;-73
2022/08/12 17:06:33;;;;;;;3.78;1.10;;;;;;;;;;5104974;27;20032;-73
2022/08/12 17:09:03;;;;;;;6.82;1.23;;;;;;;;;;5111630;28;20400;-73
2022/08/12 17:11:30;;;;;;;3.20;1.33;;;;;;;;;;5098097;28;20036;-73